createdAt,value
2023-06-17T00:00:52.826Z,53.33
2023-06-17T00:01:55.455Z,53.04
2023-06-17T00:02:58.773Z,53.34
2023-06-17T00:04:02.883Z,53.51
2023-06-17T00:05:06.648Z,53.77
2023-06-17T00:06:10.854Z,54.00
2023-06-17T00:07:13.779Z,53.95
2023-06-17T00:08:16.038Z,53.74
2023-06-17T00:09:18.346Z,54.59
2023-06-17T00:10:21.632Z,54.28
2023-06-17T00:11:25.208Z,54.14
2023-06-17T00:12:30.532Z,53.59
2023-06-17T00:13:33.230Z,53.58
2023-06-17T00:14:38.098Z,53.57
2023-06-17T00:15:42.248Z,53.57
2023-06-17T00:16:45.219Z,53.97
2023-06-17T00:17:47.580Z,54.10
2023-06-17T00:18:51.885Z,53.66
2023-06-17T00:19:56.061Z,53.42
2023-06-17T00:20:58.498Z,53.39
2023-06-17T00:22:01.199Z,54.25
2023-06-17T00:23:04.704Z,54.72
2023-06-17T00:24:07.233Z,55.09
2023-06-17T00:25:10.790Z,54.77
2023-06-17T00:26:13.413Z,54.61
2023-06-17T00:27:16.915Z,55.49
2023-06-17T00:28:19.692Z,54.96
2023-06-17T00:29:22.160Z,54.89
2023-06-17T00:30:24.909Z,54.89
2023-06-17T00:31:27.445Z,55.42
2023-06-17T00:32:33.117Z,55.90
2023-06-17T00:33:35.591Z,55.38
2023-06-17T00:34:37.659Z,55.44
2023-06-17T00:35:40.306Z,55.71
2023-06-17T00:36:43.168Z,55.41
2023-06-17T00:37:45.568Z,55.38
2023-06-17T00:38:48.079Z,54.97
2023-06-17T00:39:50.346Z,55.72
2023-06-17T00:40:53.374Z,55.27
2023-06-17T00:41:58.027Z,54.86
2023-06-17T00:43:00.416Z,55.43
2023-06-17T00:44:02.822Z,55.55
2023-06-17T00:45:06.642Z,54.66
2023-06-17T00:46:14.948Z,55.45
2023-06-17T00:47:17.558Z,55.05
2023-06-17T00:48:20.378Z,55.17
2023-06-17T00:49:26.323Z,55.52
2023-06-17T00:50:29.437Z,55.78
2023-06-17T00:51:32.689Z,55.90
2023-06-17T00:52:41.893Z,55.63
2023-06-17T00:53:39.611Z,55.46
2023-06-17T00:54:42.945Z,55.68
2023-06-17T00:55:46.129Z,55.73
2023-06-17T00:56:51.813Z,55.96
2023-06-17T00:57:55.028Z,55.55
2023-06-17T00:58:58.224Z,55.55
2023-06-17T01:00:01.445Z,55.54
2023-06-17T01:01:04.186Z,56.01
2023-06-17T01:02:09.347Z,55.82
2023-06-17T01:03:11.822Z,56.01
2023-06-17T01:04:16.639Z,55.71
2023-06-17T01:05:20.460Z,56.11
2023-06-17T01:06:40.388Z,55.81
2023-06-17T01:08:20.025Z,55.44
2023-06-17T01:09:26.191Z,55.75
2023-06-17T01:10:32.370Z,55.43
2023-06-17T01:11:39.615Z,55.97
2023-06-17T01:12:43.737Z,55.54
2023-06-17T01:13:49.615Z,55.63
2023-06-17T01:14:55.407Z,55.63
2023-06-17T01:15:59.712Z,55.55
2023-06-17T01:17:06.533Z,55.45
2023-06-17T01:18:12.255Z,55.60
2023-06-17T01:19:22.777Z,55.77
2023-06-17T01:20:26.933Z,55.36
2023-06-17T01:21:32.317Z,55.73
2023-06-17T01:22:36.994Z,55.61
2023-06-17T01:23:41.662Z,55.91
2023-06-17T01:24:46.466Z,55.83
2023-06-17T01:25:50.673Z,55.70
2023-06-17T01:26:54.986Z,55.70
2023-06-17T01:28:01.328Z,55.50
2023-06-17T01:29:04.097Z,55.31
2023-06-17T01:30:09.320Z,55.72
2023-06-17T01:31:13.358Z,55.77
2023-06-17T01:32:17.209Z,55.53
2023-06-17T01:33:21.990Z,55.69
2023-06-17T01:34:34.157Z,56.16
2023-06-17T01:35:39.244Z,55.87
2023-06-17T01:36:45.445Z,56.03
2023-06-17T01:37:51.307Z,55.70
2023-06-17T01:39:03.852Z,55.92
2023-06-17T01:40:11.393Z,56.06
2023-06-17T01:41:20.383Z,56.41
2023-06-17T01:42:32.757Z,56.61
2023-06-17T01:43:36.021Z,56.65
2023-06-17T01:44:40.523Z,56.68
2023-06-17T01:45:43.682Z,56.81
2023-06-17T01:46:46.075Z,56.61
2023-06-17T01:47:48.709Z,56.54
2023-06-17T01:48:53.806Z,56.57
2023-06-17T01:51:10.560Z,56.63
2023-06-17T01:52:13.161Z,56.43
2023-06-17T01:53:16.406Z,56.60
2023-06-17T01:54:18.721Z,56.73
2023-06-17T01:55:21.795Z,56.45
2023-06-17T01:56:24.289Z,56.38
2023-06-17T01:57:27.841Z,56.19
2023-06-17T01:58:33.288Z,56.48
2023-06-17T01:59:35.648Z,57.02
2023-06-17T02:00:38.529Z,57.02
2023-06-17T02:01:41.051Z,56.88
2023-06-17T02:02:43.279Z,56.73
2023-06-17T02:03:46.195Z,56.84
2023-06-17T02:04:49.364Z,56.72
2023-06-17T02:05:52.071Z,56.20
2023-06-17T02:06:56.162Z,57.28
2023-06-17T02:08:00.269Z,56.76
2023-06-17T02:09:03.963Z,57.02
2023-06-17T02:10:07.300Z,57.43
2023-06-17T02:11:09.849Z,56.99
2023-06-17T02:12:13.567Z,57.12
2023-06-17T02:13:17.120Z,57.81
2023-06-17T02:14:20.580Z,57.89
2023-06-17T02:15:23.369Z,57.84
2023-06-17T02:16:26.404Z,57.88
2023-06-17T02:17:29.231Z,57.74
2023-06-17T02:18:32.994Z,57.69
2023-06-17T02:19:35.955Z,57.39
2023-06-17T02:20:38.502Z,57.81
2023-06-17T02:21:41.076Z,57.76
2023-06-17T02:22:43.403Z,58.46
2023-06-17T02:23:47.694Z,57.86
2023-06-17T02:24:50.242Z,57.93
2023-06-17T02:25:52.436Z,58.81
2023-06-17T02:26:55.945Z,57.90
2023-06-17T02:28:00.418Z,57.93
2023-06-17T02:29:03.777Z,57.92
2023-06-17T02:30:09.875Z,57.56
2023-06-17T02:31:12.867Z,57.67
2023-06-17T02:32:17.324Z,57.61
2023-06-17T02:33:19.774Z,57.11
2023-06-17T02:34:21.963Z,57.06
2023-06-17T02:35:24.349Z,57.18
2023-06-17T02:36:27.203Z,57.16
2023-06-17T02:37:30.621Z,57.26
2023-06-17T02:38:33.781Z,57.33
2023-06-17T02:39:36.545Z,57.04
2023-06-17T02:40:39.952Z,57.38
2023-06-17T02:41:44.700Z,56.32
2023-06-17T02:42:48.340Z,57.23
2023-06-17T02:43:51.486Z,57.23
2023-06-17T02:44:53.775Z,57.34
2023-06-17T02:45:56.041Z,57.56
2023-06-17T02:46:58.440Z,57.69
2023-06-17T02:48:00.995Z,56.71
2023-06-17T02:49:04.849Z,57.27
2023-06-17T02:50:08.418Z,57.68
2023-06-17T02:51:11.188Z,56.94
2023-06-17T02:52:13.478Z,56.65
2023-06-17T02:53:15.760Z,57.07
2023-06-17T02:54:18.916Z,57.40
2023-06-17T02:55:21.392Z,57.06
2023-06-17T02:56:24.081Z,56.72
2023-06-17T02:57:26.456Z,57.20
2023-06-17T02:58:28.719Z,57.05
2023-06-17T02:59:33.318Z,56.75
2023-06-17T03:00:36.864Z,57.76
2023-06-17T03:01:41.045Z,57.83
2023-06-17T03:02:43.983Z,58.02
2023-06-17T03:03:46.438Z,58.24
2023-06-17T03:04:49.113Z,57.77
2023-06-17T03:05:51.680Z,57.74
2023-06-17T03:06:55.596Z,57.90
2023-06-17T03:07:58.067Z,57.98
2023-06-17T03:09:01.064Z,58.23
2023-06-17T03:10:05.255Z,57.73
2023-06-17T03:11:10.029Z,57.88
2023-06-17T03:12:13.210Z,57.71
2023-06-17T03:13:16.236Z,58.22
2023-06-17T03:14:21.404Z,58.23
2023-06-17T03:15:24.435Z,58.23
2023-06-17T03:16:28.734Z,58.53
2023-06-17T03:17:31.933Z,58.65
2023-06-17T03:18:34.499Z,58.75
2023-06-17T03:19:37.159Z,58.79
2023-06-17T03:20:39.681Z,58.44
2023-06-17T03:21:43.811Z,58.41
2023-06-17T03:22:48.114Z,58.08
2023-06-17T03:23:51.223Z,57.86
2023-06-17T03:24:53.913Z,58.04
2023-06-17T03:25:56.281Z,58.25
2023-06-17T03:26:58.872Z,58.26
2023-06-17T03:28:03.127Z,57.88
2023-06-17T03:29:05.975Z,57.94
2023-06-17T03:30:10.293Z,57.80
2023-06-17T03:31:14.685Z,57.80
2023-06-17T03:32:17.107Z,57.80
2023-06-17T03:33:20.193Z,57.88
2023-06-17T03:34:22.590Z,57.47
2023-06-17T03:35:25.858Z,58.04
2023-06-17T03:36:29.985Z,57.05
2023-06-17T03:37:32.619Z,57.03
2023-06-17T03:38:35.395Z,57.28
2023-06-17T03:39:38.734Z,57.62
2023-06-17T03:40:41.727Z,57.27
2023-06-17T03:41:45.161Z,57.12
2023-06-17T03:42:47.337Z,57.57
2023-06-17T03:43:51.194Z,57.70
2023-06-17T03:44:53.872Z,57.24
2023-06-17T03:45:57.264Z,57.30
2023-06-17T03:47:00.528Z,56.95
2023-06-17T03:48:04.185Z,56.94
2023-06-17T03:49:06.866Z,56.94
2023-06-17T03:50:10.371Z,56.96
2023-06-17T03:51:15.268Z,57.12
2023-06-17T03:52:18.213Z,57.28
2023-06-17T03:53:20.953Z,57.11
2023-06-17T03:54:23.486Z,56.75
2023-06-17T03:55:25.839Z,56.59
2023-06-17T03:56:28.814Z,56.79
2023-06-17T03:57:31.523Z,56.64
2023-06-17T03:58:33.944Z,56.23
2023-06-17T03:59:37.693Z,56.68
2023-06-17T04:00:41.463Z,56.09
2023-06-17T04:01:44.546Z,55.82
2023-06-17T04:02:48.023Z,54.93
2023-06-17T04:03:52.543Z,54.95
2023-06-17T04:04:55.463Z,55.52
2023-06-17T04:05:57.837Z,55.52
2023-06-17T04:07:02.879Z,55.20
2023-06-17T04:08:07.846Z,55.46
2023-06-17T04:09:10.666Z,55.36
2023-06-17T04:10:13.314Z,55.63
2023-06-17T04:11:17.031Z,55.91
2023-06-17T04:12:19.549Z,55.60
2023-06-17T04:13:23.046Z,56.19
2023-06-17T04:14:27.553Z,55.72
2023-06-17T04:15:29.904Z,55.68
2023-06-17T04:16:34.803Z,55.50
2023-06-17T04:17:37.283Z,55.64
2023-06-17T04:18:41.014Z,55.41
2023-06-17T04:19:43.258Z,55.28
2023-06-17T04:20:45.769Z,55.28
2023-06-17T04:21:48.098Z,55.25
2023-06-17T04:22:50.484Z,55.31
2023-06-17T04:23:52.826Z,55.75
2023-06-17T04:24:56.345Z,55.37
2023-06-17T04:26:01.319Z,55.05
2023-06-17T04:27:06.953Z,55.33
2023-06-17T04:28:11.624Z,55.65
2023-06-17T04:29:15.166Z,55.37
2023-06-17T04:30:17.998Z,55.46
2023-06-17T04:31:20.876Z,55.30
2023-06-17T04:32:25.205Z,55.29
2023-06-17T04:33:30.466Z,54.62
2023-06-17T04:34:33.716Z,54.62
2023-06-17T04:35:37.541Z,54.70
2023-06-17T04:36:39.908Z,54.49
2023-06-17T04:37:43.496Z,54.16
2023-06-17T04:38:47.737Z,54.02
2023-06-17T04:39:52.608Z,54.02
2023-06-17T04:40:55.579Z,53.72
2023-06-17T04:42:00.061Z,53.61
2023-06-17T04:43:03.008Z,54.06
2023-06-17T04:44:08.683Z,53.66
2023-06-17T04:45:11.463Z,53.60
2023-06-17T04:46:17.455Z,53.53
2023-06-17T04:47:20.692Z,53.63
2023-06-17T04:48:23.223Z,54.29
2023-06-17T04:49:25.425Z,54.64
2023-06-17T04:50:30.817Z,54.95
2023-06-17T04:51:35.009Z,54.75
2023-06-17T04:52:39.411Z,55.19
2023-06-17T04:53:42.237Z,55.17
2023-06-17T04:54:44.676Z,55.24
2023-06-17T04:55:47.190Z,55.06
2023-06-17T04:56:53.062Z,55.08
2023-06-17T04:57:55.382Z,55.17
2023-06-17T04:59:00.512Z,55.85
2023-06-17T05:00:03.383Z,55.53
2023-06-17T05:01:06.133Z,55.25
2023-06-17T05:02:08.662Z,55.14
2023-06-17T05:03:12.122Z,56.31
2023-06-17T05:04:14.488Z,55.92
2023-06-17T05:05:16.931Z,55.92
2023-06-17T05:06:19.248Z,55.64
2023-06-17T05:07:21.864Z,54.96
2023-06-17T05:08:24.130Z,55.08
2023-06-17T05:09:27.851Z,55.00
2023-06-17T05:10:31.240Z,54.87
2023-06-17T05:11:34.441Z,54.25
2023-06-17T05:12:39.351Z,54.25
2023-06-17T05:13:41.761Z,54.32
2023-06-17T05:14:45.244Z,55.01
2023-06-17T05:15:47.680Z,55.11
2023-06-17T05:16:50.147Z,55.38
2023-06-17T05:17:53.347Z,55.30
2023-06-17T05:18:56.368Z,55.58
2023-06-17T05:19:59.187Z,55.10
2023-06-17T05:21:04.979Z,54.83
2023-06-17T05:22:08.451Z,54.34
2023-06-17T05:23:10.884Z,54.24
2023-06-17T05:24:13.549Z,53.87
2023-06-17T05:25:16.894Z,54.32
2023-06-17T05:26:19.474Z,54.37
2023-06-17T05:27:21.828Z,54.40
2023-06-17T05:28:24.488Z,54.83
2023-06-17T05:29:26.942Z,54.83
2023-06-17T05:30:31.257Z,53.94
2023-06-17T05:31:35.458Z,53.37
2023-06-17T05:32:37.780Z,53.13
2023-06-17T05:33:40.573Z,52.95
2023-06-17T05:34:43.349Z,53.71
2023-06-17T05:35:45.675Z,53.81
2023-06-17T05:36:48.825Z,53.25
2023-06-17T05:37:51.227Z,53.01
2023-06-17T05:38:53.515Z,52.91
2023-06-17T05:39:55.785Z,52.06
2023-06-17T05:40:58.259Z,51.54
2023-06-17T05:42:02.045Z,51.73
2023-06-17T05:43:04.413Z,51.53
2023-06-17T05:44:07.182Z,51.58
2023-06-17T05:45:10.356Z,51.52
2023-06-17T05:46:14.427Z,51.03
2023-06-17T05:47:17.019Z,50.50
2023-06-17T05:48:23.020Z,49.89
2023-06-17T05:49:27.992Z,50.47
2023-06-17T05:50:31.139Z,50.88
2023-06-17T05:51:35.358Z,50.84
2023-06-17T05:52:38.800Z,50.58
2023-06-17T05:53:42.293Z,50.21
2023-06-17T05:54:45.615Z,49.86
2023-06-17T05:55:48.115Z,49.19
2023-06-17T05:56:50.889Z,48.86
2023-06-17T05:57:55.353Z,48.40
2023-06-17T05:58:58.469Z,49.09
2023-06-17T06:00:03.768Z,49.07
2023-06-17T06:01:07.905Z,49.03
2023-06-17T06:02:09.939Z,48.87
2023-06-17T06:03:12.529Z,49.10
2023-06-17T06:04:14.882Z,49.90
2023-06-17T06:05:17.244Z,49.91
2023-06-17T06:06:20.776Z,49.65
2023-06-17T06:07:25.593Z,49.49
2023-06-17T06:08:28.278Z,49.34
2023-06-17T06:09:30.666Z,49.20
2023-06-17T06:10:34.397Z,49.16
2023-06-17T06:11:37.927Z,49.39
2023-06-17T06:12:41.158Z,49.43
2023-06-17T06:13:43.416Z,49.49
2023-06-17T06:14:46.631Z,49.54
2023-06-17T06:15:48.919Z,50.02
2023-06-17T06:16:51.473Z,49.34
2023-06-17T06:17:53.976Z,50.03
2023-06-17T06:18:56.190Z,49.99
2023-06-17T06:19:58.606Z,49.69
2023-06-17T06:21:01.153Z,50.01
2023-06-17T06:22:04.637Z,50.07
2023-06-17T06:23:07.684Z,49.84
2023-06-17T06:24:10.930Z,49.58
2023-06-17T06:25:14.780Z,49.41
2023-06-17T06:26:19.338Z,48.97
2023-06-17T06:27:21.797Z,49.03
2023-06-17T06:28:24.160Z,48.74
2023-06-17T06:29:26.845Z,48.56
2023-06-17T06:30:30.631Z,48.29
2023-06-17T06:31:33.954Z,47.69
2023-06-17T06:32:36.828Z,47.41
2023-06-17T06:33:40.020Z,47.69
2023-06-17T06:34:42.769Z,47.43
2023-06-17T06:35:45.438Z,47.31
2023-06-17T06:36:50.258Z,47.35
2023-06-17T06:37:52.499Z,46.91
2023-06-17T06:38:55.348Z,46.77
2023-06-17T06:39:58.187Z,46.47
2023-06-17T06:41:01.335Z,46.52
2023-06-17T06:42:04.982Z,46.59
2023-06-17T06:43:09.005Z,46.82
2023-06-17T06:44:13.059Z,47.21
2023-06-17T06:45:17.226Z,47.05
2023-06-17T06:46:20.653Z,46.68
2023-06-17T06:47:23.808Z,46.44
2023-06-17T06:48:28.285Z,46.48
2023-06-17T06:49:31.288Z,46.39
2023-06-17T06:50:35.784Z,46.28
2023-06-17T06:51:38.809Z,46.64
2023-06-17T06:52:41.305Z,46.26
2023-06-17T06:53:44.866Z,45.91
2023-06-17T06:54:47.602Z,45.72
2023-06-17T06:55:50.707Z,45.04
2023-06-17T06:56:54.816Z,44.89
2023-06-17T06:57:57.470Z,45.00
2023-06-17T06:59:00.728Z,44.85
2023-06-17T07:00:06.242Z,44.48
2023-06-17T07:01:08.625Z,44.20
2023-06-17T07:02:11.247Z,43.29
2023-06-17T07:03:16.049Z,42.95
2023-06-17T07:04:21.129Z,42.92
2023-06-17T07:05:24.934Z,42.37
2023-06-17T07:06:29.897Z,42.72
2023-06-17T07:07:33.889Z,42.15
2023-06-17T07:08:36.938Z,42.15
2023-06-17T07:09:39.988Z,42.24
2023-06-17T07:10:42.718Z,41.62
2023-06-17T07:11:45.760Z,41.23
2023-06-17T07:12:49.589Z,41.88
2023-06-17T07:13:52.940Z,41.14
2023-06-17T07:14:56.953Z,41.03
2023-06-17T07:15:59.566Z,40.72
2023-06-17T07:17:02.226Z,41.08
2023-06-17T07:18:05.401Z,40.91
2023-06-17T07:19:08.267Z,41.38
2023-06-17T07:20:13.018Z,40.00
2023-06-17T07:21:15.687Z,40.67
2023-06-17T07:22:18.414Z,40.12
2023-06-17T07:23:20.838Z,40.68
2023-06-17T07:24:23.806Z,41.25
2023-06-17T07:25:27.128Z,40.52
2023-06-17T07:26:30.289Z,40.20
2023-06-17T07:27:32.827Z,40.18
2023-06-17T07:28:35.343Z,41.80
2023-06-17T07:29:38.531Z,40.56
2023-06-17T07:30:42.019Z,40.62
2023-06-17T07:31:45.446Z,39.58
2023-06-17T07:32:48.592Z,39.68
2023-06-17T07:33:55.826Z,39.51
2023-06-17T07:34:58.190Z,39.32
2023-06-17T07:36:00.368Z,39.50
2023-06-17T07:37:03.293Z,39.93
2023-06-17T07:38:05.949Z,40.42
2023-06-17T07:39:09.093Z,40.64
2023-06-17T07:40:14.138Z,40.68
2023-06-17T07:41:16.992Z,40.68
2023-06-17T07:42:19.388Z,40.04
2023-06-17T07:43:22.321Z,39.81
2023-06-17T07:44:24.760Z,39.83
2023-06-17T07:45:27.214Z,39.98
2023-06-17T07:46:31.705Z,39.91
2023-06-17T07:47:34.172Z,40.21
2023-06-17T07:48:36.379Z,40.78
2023-06-17T07:49:39.053Z,41.02
2023-06-17T07:50:41.587Z,40.77
2023-06-17T07:51:43.749Z,40.19
2023-06-17T07:52:46.975Z,39.76
2023-06-17T07:53:49.889Z,39.15
2023-06-17T07:54:54.490Z,39.61
2023-06-17T07:55:56.949Z,39.37
2023-06-17T07:56:59.674Z,39.62
2023-06-17T07:58:02.026Z,38.87
2023-06-17T07:59:05.491Z,39.07
2023-06-17T08:00:14.179Z,38.99
2023-06-17T08:01:18.418Z,38.92
2023-06-17T08:02:21.862Z,38.62
2023-06-17T08:03:24.544Z,38.65
2023-06-17T08:04:26.881Z,38.05
2023-06-17T08:05:29.169Z,38.33
2023-06-17T08:06:32.635Z,38.26
2023-06-17T08:07:36.423Z,37.96
2023-06-17T08:08:39.751Z,37.95
2023-06-17T08:09:42.153Z,38.09
2023-06-17T08:10:45.903Z,38.28
2023-06-17T08:11:49.309Z,38.00
2023-06-17T08:12:51.797Z,37.21
2023-06-17T08:13:54.200Z,37.21
2023-06-17T08:15:00.164Z,37.04
2023-06-17T08:16:03.116Z,36.90
2023-06-17T08:17:07.371Z,37.06
2023-06-17T08:18:10.251Z,37.00
2023-06-17T08:19:22.145Z,37.21
2023-06-17T08:20:28.597Z,36.73
2023-06-17T08:21:31.088Z,37.15
2023-06-17T08:22:34.924Z,36.36
2023-06-17T08:23:39.481Z,37.06
2023-06-17T08:24:42.548Z,36.75
2023-06-17T08:25:47.520Z,36.31
2023-06-17T08:26:50.779Z,36.15
2023-06-17T08:27:54.100Z,36.77
2023-06-17T08:28:56.474Z,36.31
2023-06-17T08:29:59.292Z,35.33
2023-06-17T08:31:02.533Z,35.33
2023-06-17T08:32:05.510Z,35.52
2023-06-17T08:33:08.016Z,35.62
2023-06-17T08:34:11.634Z,35.77
2023-06-17T08:35:14.898Z,34.81
2023-06-17T08:36:17.326Z,34.59
2023-06-17T08:37:19.619Z,33.99
2023-06-17T08:38:22.007Z,34.00
2023-06-17T08:39:25.031Z,33.62
2023-06-17T08:40:28.731Z,33.28
2023-06-17T08:41:34.189Z,32.54
2023-06-17T08:42:36.375Z,32.54
2023-06-17T08:43:40.599Z,32.49
2023-06-17T08:44:45.292Z,31.77
2023-06-17T08:45:50.750Z,32.51
2023-06-17T08:46:54.696Z,33.11
2023-06-17T08:47:58.441Z,33.21
2023-06-17T08:49:03.021Z,33.51
2023-06-17T08:50:08.320Z,34.44
2023-06-17T08:51:11.072Z,33.71
2023-06-17T08:52:17.405Z,33.14
2023-06-17T08:53:20.398Z,33.87
2023-06-17T08:54:23.510Z,34.38
2023-06-17T08:55:25.851Z,34.50
2023-06-17T08:56:28.545Z,35.27
2023-06-17T08:57:32.960Z,34.75
2023-06-17T08:58:38.129Z,35.13
2023-06-17T08:59:43.686Z,34.90
2023-06-17T09:00:46.263Z,34.82
2023-06-17T09:01:51.833Z,34.99
2023-06-17T09:02:58.280Z,34.98
2023-06-17T09:04:02.182Z,34.65
2023-06-17T09:05:05.887Z,34.64
2023-06-17T09:06:28.947Z,35.45
2023-06-17T09:07:33.467Z,34.66
2023-06-17T09:08:36.308Z,35.07
2023-06-17T09:09:38.860Z,34.55
2023-06-17T09:10:45.277Z,34.66
2023-06-17T09:11:54.666Z,34.68
2023-06-17T09:13:00.830Z,35.08
2023-06-17T09:14:04.579Z,34.69
2023-06-17T09:15:08.942Z,33.57
2023-06-17T09:16:13.381Z,34.63
2023-06-17T09:17:33.391Z,34.36
2023-06-17T09:18:36.423Z,34.17
2023-06-17T09:19:42.739Z,33.73
2023-06-17T09:20:52.187Z,33.84
2023-06-17T09:21:56.407Z,34.69
2023-06-17T09:22:59.249Z,34.23
2023-06-17T09:24:06.567Z,34.67
2023-06-17T09:25:12.041Z,35.26
2023-06-17T09:26:15.161Z,34.27
2023-06-17T09:27:21.957Z,34.66
2023-06-17T09:28:25.899Z,34.61
2023-06-17T09:29:30.588Z,33.85
2023-06-17T09:30:37.074Z,34.10
2023-06-17T09:31:54.849Z,33.86
2023-06-17T09:32:57.830Z,33.99
2023-06-17T09:34:06.391Z,33.60
2023-06-17T09:35:17.285Z,33.50
2023-06-17T09:36:21.814Z,33.79
2023-06-17T09:37:25.063Z,33.61
2023-06-17T09:38:34.211Z,33.24
2023-06-17T09:39:37.948Z,32.38
2023-06-17T09:40:42.578Z,32.91
2023-06-17T09:41:45.998Z,33.41
2023-06-17T09:42:50.225Z,33.36
2023-06-17T09:43:53.655Z,32.44
2023-06-17T09:44:56.104Z,32.80
2023-06-17T09:46:05.498Z,32.94
2023-06-17T09:47:09.734Z,32.79
2023-06-17T09:48:14.015Z,32.92
2023-06-17T09:49:23.249Z,32.74
2023-06-17T09:50:27.280Z,32.82
2023-06-17T09:51:32.396Z,32.63
2023-06-17T09:52:37.808Z,32.67
2023-06-17T09:53:44.635Z,32.26
2023-06-17T09:54:47.216Z,31.66
2023-06-17T09:55:52.077Z,32.19
2023-06-17T09:56:57.053Z,32.47
2023-06-17T09:58:00.620Z,31.32
2023-06-17T09:59:08.566Z,31.61
2023-06-17T10:00:13.827Z,31.92
2023-06-17T10:01:16.630Z,31.94
2023-06-17T10:02:19.073Z,32.33
2023-06-17T10:03:21.656Z,31.21
2023-06-17T10:04:24.245Z,31.54
2023-06-17T10:05:27.868Z,31.65
2023-06-17T10:06:32.223Z,31.59
2023-06-17T10:07:36.768Z,30.96
2023-06-17T10:08:42.766Z,32.03
2023-06-17T10:09:48.123Z,32.13
2023-06-17T10:10:52.816Z,31.16
2023-06-17T10:11:58.559Z,31.38
2023-06-17T10:13:06.095Z,32.29
2023-06-17T10:14:13.067Z,31.95
2023-06-17T10:15:18.977Z,31.74
2023-06-17T10:16:25.046Z,32.01
2023-06-17T10:17:29.517Z,32.03
2023-06-17T10:18:35.799Z,31.08
2023-06-17T10:19:43.083Z,31.20
2023-06-17T10:20:48.290Z,31.27
2023-06-17T10:21:56.649Z,32.32
2023-06-17T10:23:02.783Z,31.86
2023-06-17T10:24:06.422Z,31.40
2023-06-17T10:25:11.706Z,31.31
2023-06-17T10:26:14.876Z,31.30
2023-06-17T10:27:22.178Z,31.64
2023-06-17T10:28:24.512Z,31.47
2023-06-17T10:29:26.925Z,31.56
2023-06-17T10:30:30.779Z,31.81
2023-06-17T10:31:39.795Z,31.40
2023-06-17T10:32:46.830Z,31.88
2023-06-17T10:33:53.381Z,31.14
2023-06-17T10:35:15.976Z,30.90
2023-06-17T10:36:23.878Z,31.15
2023-06-17T10:37:27.808Z,31.43
2023-06-17T10:38:31.259Z,30.41
2023-06-17T10:39:34.070Z,30.78
2023-06-17T10:40:44.019Z,30.31
2023-06-17T10:41:54.751Z,29.39
2023-06-17T10:43:07.012Z,29.92
2023-06-17T10:45:55.165Z,30.43
2023-06-17T10:46:57.958Z,29.17
2023-06-17T10:48:23.286Z,29.18
2023-06-17T10:49:27.002Z,30.16
2023-06-17T10:50:30.575Z,29.51
2023-06-17T10:51:41.562Z,29.74
2023-06-17T10:52:41.119Z,29.63
2023-06-17T10:53:51.141Z,30.08
2023-06-17T10:54:56.939Z,30.29
2023-06-17T10:56:00.818Z,29.32
2023-06-17T10:57:07.545Z,30.22
2023-06-17T10:58:11.045Z,30.22
2023-06-17T10:59:13.810Z,29.52
2023-06-17T11:00:16.790Z,29.64
2023-06-17T11:01:19.127Z,29.59
2023-06-17T11:02:21.544Z,29.58
2023-06-17T11:03:23.954Z,30.40
2023-06-17T11:05:42.856Z,30.37
2023-06-17T11:06:48.526Z,29.84
2023-06-17T11:07:58.419Z,30.16
2023-06-17T11:09:04.952Z,29.71
2023-06-17T11:10:08.802Z,29.84
2023-06-17T11:11:17.320Z,30.10
2023-06-17T11:12:20.706Z,29.69
2023-06-17T11:13:23.288Z,29.80
2023-06-17T11:14:28.477Z,30.16
2023-06-17T11:15:34.799Z,30.03
2023-06-17T11:16:39.679Z,30.35
2023-06-17T11:17:43.281Z,29.13
2023-06-17T11:18:50.127Z,29.47
2023-06-17T11:19:52.210Z,29.26
2023-06-17T11:20:54.373Z,29.47
2023-06-17T11:21:58.146Z,29.67
2023-06-17T11:23:00.470Z,30.50
2023-06-17T11:24:02.973Z,30.59
2023-06-17T11:25:06.626Z,30.23
2023-06-17T11:26:10.586Z,30.00
2023-06-17T11:27:13.200Z,29.63
2023-06-17T11:28:15.654Z,30.47
2023-06-17T11:29:20.019Z,30.07
2023-06-17T11:30:24.420Z,30.26
2023-06-17T11:31:27.451Z,30.22
2023-06-17T11:32:33.180Z,30.42
2023-06-17T11:33:37.789Z,30.79
2023-06-17T11:34:42.214Z,30.50
2023-06-17T11:35:44.861Z,30.65
2023-06-17T11:36:53.972Z,30.82
2023-06-17T11:37:56.298Z,31.10
2023-06-17T11:38:59.100Z,30.46
2023-06-17T11:40:01.788Z,30.53
2023-06-17T11:41:06.993Z,30.73
2023-06-17T11:42:10.074Z,30.25
2023-06-17T11:43:13.221Z,30.26
2023-06-17T11:44:15.908Z,30.12
2023-06-17T11:45:18.339Z,29.72
2023-06-17T11:46:29.423Z,29.72
2023-06-17T11:47:35.871Z,29.69
2023-06-17T11:48:38.452Z,29.87
2023-06-17T11:49:44.757Z,30.72
2023-06-17T11:50:50.713Z,31.35
2023-06-17T11:51:55.233Z,29.96
2023-06-17T11:52:57.797Z,30.54
2023-06-17T11:54:09.759Z,30.27
2023-06-17T11:55:19.213Z,29.53
2023-06-17T11:56:24.065Z,30.76
2023-06-17T11:57:27.234Z,30.43
2023-06-17T11:58:29.763Z,29.71
2023-06-17T11:59:36.413Z,30.31
2023-06-17T12:00:45.268Z,29.96
2023-06-17T12:01:48.072Z,28.47
2023-06-17T12:02:50.461Z,28.06
2023-06-17T12:03:57.494Z,27.04
2023-06-17T12:05:03.707Z,26.61
2023-06-17T12:06:06.813Z,26.44
2023-06-17T12:07:09.212Z,25.67
2023-06-17T12:08:12.383Z,26.09
2023-06-17T12:09:17.050Z,25.80
2023-06-17T12:10:22.356Z,25.08
2023-06-17T12:11:38.000Z,26.51
2023-06-17T12:12:41.554Z,25.86
2023-06-17T12:13:43.832Z,26.58
2023-06-17T12:14:46.171Z,26.77
2023-06-17T12:15:48.422Z,27.11
2023-06-17T12:16:53.195Z,26.83
2023-06-17T12:17:57.467Z,27.38
2023-06-17T12:19:02.644Z,27.18
2023-06-17T12:20:07.199Z,27.66
2023-06-17T12:21:12.139Z,27.37
2023-06-17T12:22:15.276Z,28.29
2023-06-17T12:23:17.561Z,27.63
2023-06-17T12:24:19.870Z,28.08
2023-06-17T12:25:22.227Z,27.94
2023-06-17T12:26:26.221Z,28.50
2023-06-17T12:27:31.311Z,28.22
2023-06-17T12:28:34.455Z,28.55
2023-06-17T12:29:37.589Z,28.23
2023-06-17T12:30:39.987Z,28.07
2023-06-17T12:31:44.037Z,28.47
2023-06-17T12:32:46.766Z,29.09
2023-06-17T12:33:50.775Z,28.83
2023-06-17T12:34:53.962Z,28.74
2023-06-17T12:35:57.181Z,28.66
2023-06-17T12:37:00.929Z,28.31
2023-06-17T12:38:04.008Z,28.54
2023-06-17T12:39:09.156Z,27.94
2023-06-17T12:40:12.231Z,28.27
2023-06-17T12:41:16.768Z,28.34
2023-06-17T12:42:19.691Z,28.11
2023-06-17T12:43:22.136Z,28.70
2023-06-17T12:44:24.230Z,28.13
2023-06-17T12:45:28.240Z,28.19
2023-06-17T12:46:33.485Z,27.60
2023-06-17T12:47:37.390Z,27.22
2023-06-17T12:48:41.565Z,26.84
2023-06-17T12:49:44.756Z,24.95
2023-06-17T12:50:47.238Z,25.20
2023-06-17T12:51:50.004Z,26.35
2023-06-17T12:52:54.259Z,24.49
2023-06-17T12:53:56.648Z,24.85
2023-06-17T12:55:00.281Z,24.06
2023-06-17T12:56:03.577Z,26.14
2023-06-17T12:57:08.407Z,25.12
2023-06-17T12:58:11.055Z,25.13
2023-06-17T12:59:16.369Z,25.41
2023-06-17T13:00:19.168Z,26.55
2023-06-17T13:01:21.623Z,25.25
2023-06-17T13:02:23.901Z,24.41
2023-06-17T13:03:26.067Z,24.37
2023-06-17T13:04:28.394Z,24.48
2023-06-17T13:05:30.517Z,24.70
2023-06-17T13:06:32.996Z,23.95
2023-06-17T13:07:35.208Z,23.11
2023-06-17T13:08:38.632Z,23.59
2023-06-17T13:09:41.193Z,22.51
2023-06-17T13:10:43.528Z,23.49
2023-06-17T13:11:45.765Z,23.84
2023-06-17T13:12:48.288Z,23.81
2023-06-17T13:13:50.964Z,22.75
2023-06-17T13:14:54.038Z,23.23
2023-06-17T13:15:56.441Z,23.84
2023-06-17T13:16:58.916Z,23.54
2023-06-17T13:18:01.211Z,22.82
2023-06-17T13:19:05.506Z,22.26
2023-06-17T13:20:10.420Z,23.41
2023-06-17T13:21:12.901Z,23.97
2023-06-17T13:22:15.298Z,23.89
2023-06-17T13:23:17.916Z,22.98
2023-06-17T13:24:20.786Z,23.99
2023-06-17T13:25:25.321Z,23.27
2023-06-17T13:26:30.170Z,22.53
2023-06-17T13:27:33.371Z,22.79
2023-06-17T13:28:37.368Z,22.99
2023-06-17T13:29:39.783Z,22.06
2023-06-17T13:30:44.147Z,21.96
2023-06-17T13:31:46.497Z,21.85
2023-06-17T13:32:49.207Z,22.67
2023-06-17T13:33:52.804Z,22.30
2023-06-17T13:34:55.480Z,21.80
2023-06-17T13:35:57.932Z,22.48
2023-06-17T13:37:00.948Z,22.01
2023-06-17T13:38:03.459Z,22.23
2023-06-17T13:39:06.886Z,21.02
2023-06-17T13:40:10.278Z,21.26
2023-06-17T13:41:12.997Z,22.07
2023-06-17T13:42:15.468Z,21.25
2023-06-17T13:43:18.800Z,20.98
2023-06-17T13:44:21.835Z,21.52
2023-06-17T13:45:24.193Z,21.46
2023-06-17T13:46:26.556Z,22.18
2023-06-17T13:47:29.287Z,21.26
2023-06-17T13:48:31.972Z,19.18